createdAt,value
2024-03-07T00:01:28.248Z,89.35
2024-03-07T00:03:56.397Z,89.44
2024-03-07T00:06:23.190Z,89.66
2024-03-07T00:08:50.915Z,89.81
2024-03-07T00:11:19.175Z,89.94
2024-03-07T00:13:46.161Z,89.85
2024-03-07T00:16:12.995Z,89.90
2024-03-07T00:18:41.306Z,89.90
2024-03-07T00:21:08.272Z,90.02
2024-03-07T00:23:35.146Z,90.11
2024-03-07T00:26:03.538Z,90.19
2024-03-07T00:28:30.792Z,90.29
2024-03-07T00:30:57.591Z,90.26
2024-03-07T00:33:26.578Z,90.15
2024-03-07T00:35:55.382Z,90.16
2024-03-07T00:38:24.653Z,90.18
2024-03-07T00:40:51.654Z,89.94
2024-03-07T00:43:18.595Z,89.78
2024-03-07T00:45:46.872Z,89.92
2024-03-07T00:48:13.783Z,89.66
2024-03-07T00:50:41.192Z,89.57
2024-03-07T00:53:09.475Z,89.59
2024-03-07T00:55:36.599Z,89.49
2024-03-07T00:58:03.663Z,89.56
2024-03-07T01:00:31.933Z,89.30
2024-03-07T01:02:58.887Z,89.20
2024-03-07T01:05:26.049Z,89.24
2024-03-07T01:07:54.209Z,88.93
2024-03-07T01:10:21.350Z,88.82
2024-03-07T01:12:48.280Z,88.80
2024-03-07T01:15:16.869Z,88.67
2024-03-07T01:17:43.927Z,88.49
2024-03-07T01:20:11.334Z,88.60
2024-03-07T01:22:39.618Z,88.31
2024-03-07T01:25:06.379Z,88.59
2024-03-07T01:27:33.166Z,88.65
2024-03-07T01:30:01.239Z,88.66
2024-03-07T01:32:28.199Z,88.48
2024-03-07T01:34:55.428Z,88.54
2024-03-07T01:37:23.566Z,88.50
2024-03-07T01:39:50.367Z,88.35
2024-03-07T01:42:17.342Z,88.22
2024-03-07T01:44:45.543Z,88.28
2024-03-07T01:47:12.595Z,88.28
2024-03-07T01:49:39.615Z,88.23
2024-03-07T01:52:07.889Z,88.15
2024-03-07T01:54:34.829Z,88.16
2024-03-07T01:57:02.176Z,88.01
2024-03-07T01:59:30.485Z,87.89
2024-03-07T02:01:57.407Z,87.79
2024-03-07T02:04:24.347Z,87.50
2024-03-07T02:06:52.424Z,87.45
2024-03-07T02:09:19.193Z,87.52
2024-03-07T02:11:46.069Z,87.73
2024-03-07T02:14:14.383Z,87.61
2024-03-07T02:16:41.832Z,87.40
2024-03-07T02:19:08.790Z,87.33
2024-03-07T02:21:36.956Z,87.40
2024-03-07T02:24:03.903Z,87.23
2024-03-07T02:26:30.654Z,87.11
2024-03-07T02:28:58.918Z,87.10
2024-03-07T02:31:25.768Z,87.06
2024-03-07T02:33:52.588Z,87.02
2024-03-07T02:36:20.787Z,86.62
2024-03-07T02:38:48.057Z,86.64
2024-03-07T02:41:14.989Z,86.61
2024-03-07T02:43:43.150Z,86.69
2024-03-07T02:46:10.084Z,86.68
2024-03-07T02:48:37.195Z,86.55
2024-03-07T02:51:05.302Z,86.55
2024-03-07T02:53:32.285Z,86.48
2024-03-07T02:55:59.290Z,86.37
2024-03-07T02:58:27.477Z,86.34
2024-03-07T03:00:54.406Z,85.95
2024-03-07T03:03:21.197Z,85.79
2024-03-07T03:05:49.469Z,85.54
2024-03-07T03:08:16.433Z,85.61
2024-03-07T03:10:43.105Z,85.48
2024-03-07T03:13:11.141Z,85.24
2024-03-07T03:15:38.027Z,84.74
2024-03-07T03:18:05.543Z,84.61
2024-03-07T03:20:34.115Z,84.38
2024-03-07T03:23:10.864Z,84.37
2024-03-07T03:25:47.467Z,84.30
2024-03-07T03:28:14.350Z,84.50
2024-03-07T03:30:41.127Z,84.61
2024-03-07T03:33:09.393Z,84.86
2024-03-07T03:35:36.350Z,84.91
2024-03-07T03:38:03.227Z,84.98
2024-03-07T03:40:31.261Z,84.82
2024-03-07T03:42:58.017Z,84.50
2024-03-07T03:45:25.241Z,84.50
2024-03-07T03:47:53.578Z,84.27
2024-03-07T03:50:20.668Z,84.38
2024-03-07T03:52:47.688Z,84.21
2024-03-07T03:55:15.698Z,83.99
2024-03-07T03:57:42.702Z,84.06
2024-03-07T04:00:09.745Z,84.23
2024-03-07T04:02:38.077Z,84.19
2024-03-07T04:05:04.962Z,84.29
2024-03-07T04:07:32.239Z,84.35
2024-03-07T04:10:00.608Z,84.17
2024-03-07T04:12:27.606Z,84.14
2024-03-07T04:14:54.464Z,84.14
2024-03-07T04:17:22.719Z,84.15
2024-03-07T04:19:49.653Z,83.84
2024-03-07T04:22:16.652Z,83.95
2024-03-07T04:24:44.806Z,84.20
2024-03-07T04:27:11.977Z,83.91
2024-03-07T04:29:38.869Z,83.87
2024-03-07T04:32:06.989Z,83.16
2024-03-07T04:34:33.936Z,83.47
2024-03-07T04:37:00.782Z,83.47
2024-03-07T04:39:29.061Z,83.34
2024-03-07T04:41:58.168Z,83.40
2024-03-07T04:44:27.657Z,82.98
2024-03-07T04:46:54.494Z,83.24
2024-03-07T04:49:21.745Z,83.24
2024-03-07T04:51:49.919Z,83.48
2024-03-07T04:54:16.679Z,83.24
2024-03-07T04:56:43.520Z,83.08
2024-03-07T04:59:11.827Z,82.83
2024-03-07T05:01:38.735Z,82.82
2024-03-07T05:04:05.526Z,83.12
2024-03-07T05:06:33.739Z,82.78
2024-03-07T05:09:00.573Z,82.83
2024-03-07T05:11:27.422Z,82.85
2024-03-07T05:13:55.696Z,83.00
2024-03-07T05:16:22.540Z,83.23
2024-03-07T05:18:49.403Z,82.92
2024-03-07T05:21:17.549Z,82.75
2024-03-07T05:23:44.419Z,82.70
2024-03-07T05:26:11.440Z,82.86
2024-03-07T05:28:40.020Z,83.08
2024-03-07T05:31:06.872Z,83.36
2024-03-07T05:33:33.824Z,83.62
2024-03-07T05:36:02.117Z,83.56
2024-03-07T05:38:29.294Z,83.49
2024-03-07T05:40:56.273Z,82.92
2024-03-07T05:43:24.359Z,82.83
2024-03-07T05:45:51.389Z,82.61
2024-03-07T05:48:18.990Z,82.20
2024-03-07T05:50:47.897Z,81.55
2024-03-07T05:53:15.034Z,80.93
2024-03-07T05:55:41.930Z,81.19
2024-03-07T05:58:10.102Z,81.04
2024-03-07T06:00:36.995Z,80.18
2024-03-07T06:03:03.991Z,79.64
2024-03-07T06:05:32.323Z,79.09
2024-03-07T06:07:59.220Z,78.97
2024-03-07T06:10:26.303Z,77.97
2024-03-07T06:13:05.246Z,77.28
2024-03-07T06:15:38.897Z,76.71
2024-03-07T06:18:06.003Z,76.54
2024-03-07T06:20:33.014Z,76.52
2024-03-07T06:23:01.164Z,76.22
2024-03-07T06:25:28.004Z,76.18
2024-03-07T06:27:54.948Z,76.02
2024-03-07T06:30:23.232Z,75.58
2024-03-07T06:32:50.621Z,75.35
2024-03-07T06:35:17.658Z,75.32
2024-03-07T06:37:45.899Z,75.36
2024-03-07T06:40:12.840Z,74.71
2024-03-07T06:42:39.808Z,74.79
2024-03-07T06:45:08.066Z,74.67
2024-03-07T06:47:35.170Z,74.72
2024-03-07T06:50:02.357Z,74.32
2024-03-07T06:52:30.851Z,74.78
2024-03-07T06:54:58.197Z,73.81
2024-03-07T06:57:25.139Z,74.07
2024-03-07T06:59:53.653Z,73.52
2024-03-07T07:02:20.932Z,73.13
2024-03-07T07:04:48.022Z,72.81
2024-03-07T07:07:16.299Z,72.44
2024-03-07T07:09:43.340Z,72.61
2024-03-07T07:12:10.357Z,71.94
2024-03-07T07:14:38.809Z,71.75
2024-03-07T07:17:09.409Z,71.42
2024-03-07T07:19:39.314Z,71.54
2024-03-07T07:22:06.371Z,71.44
2024-03-07T07:24:33.617Z,71.72
2024-03-07T07:27:02.541Z,71.22
2024-03-07T07:29:29.593Z,71.16
2024-03-07T07:31:56.600Z,70.98
2024-03-07T07:34:24.975Z,70.37
2024-03-07T07:36:52.226Z,70.13
2024-03-07T07:39:19.180Z,70.43
2024-03-07T07:41:47.493Z,70.09
2024-03-07T07:44:14.548Z,69.33
2024-03-07T07:46:41.871Z,69.44
2024-03-07T07:49:10.346Z,69.32
2024-03-07T07:51:37.193Z,69.36
2024-03-07T07:54:04.240Z,69.10
2024-03-07T07:56:32.413Z,69.05
2024-03-07T07:58:59.633Z,69.72
2024-03-07T08:01:26.461Z,68.72
2024-03-07T08:03:54.648Z,68.84
2024-03-07T08:06:21.660Z,68.58
2024-03-07T08:08:48.600Z,68.47
2024-03-07T08:11:17.152Z,68.17
2024-03-07T08:13:44.174Z,69.18
2024-03-07T08:16:11.121Z,68.36
2024-03-07T08:18:39.409Z,67.83
2024-03-07T08:21:06.441Z,67.69
2024-03-07T08:23:33.635Z,68.03
2024-03-07T08:26:02.175Z,67.84
2024-03-07T08:28:29.220Z,67.79
2024-03-07T08:30:56.067Z,67.69
2024-03-07T08:33:24.422Z,67.39
2024-03-07T08:35:51.690Z,67.88
2024-03-07T08:38:19.189Z,67.74
2024-03-07T08:40:47.221Z,68.69
2024-03-07T08:43:14.374Z,68.46
2024-03-07T08:45:41.416Z,68.10
2024-03-07T08:48:09.802Z,67.41
2024-03-07T08:50:37.262Z,66.71
2024-03-07T08:53:04.299Z,67.09
2024-03-07T08:55:32.452Z,67.01
2024-03-07T08:57:59.518Z,66.97
2024-03-07T09:00:27.723Z,66.37
2024-03-07T09:02:57.154Z,66.93
2024-03-07T09:05:24.845Z,66.47
2024-03-07T09:07:52.424Z,65.47
2024-03-07T09:10:20.689Z,65.63
2024-03-07T09:12:47.739Z,65.82
2024-03-07T09:15:14.747Z,64.93
2024-03-07T09:17:43.242Z,63.68
2024-03-07T09:20:11.867Z,64.17
2024-03-07T09:22:41.257Z,64.47
2024-03-07T09:25:08.503Z,64.18
2024-03-07T09:27:35.453Z,64.08
2024-03-07T09:30:03.673Z,64.15
2024-03-07T09:32:30.907Z,63.36
2024-03-07T09:34:58.058Z,62.96
2024-03-07T09:37:26.402Z,62.91
2024-03-07T09:39:53.452Z,62.88
2024-03-07T09:42:20.699Z,63.09
2024-03-07T09:44:49.421Z,62.73
2024-03-07T09:47:16.454Z,62.94
2024-03-07T09:49:43.476Z,62.44
2024-03-07T09:52:11.749Z,62.29
2024-03-07T09:54:38.701Z,62.14
2024-03-07T09:57:05.869Z,61.87
2024-03-07T09:59:34.287Z,61.87
2024-03-07T10:02:01.477Z,62.17
2024-03-07T10:04:28.631Z,61.88
2024-03-07T10:06:57.321Z,61.31
2024-03-07T10:09:24.253Z,61.64
2024-03-07T10:11:51.148Z,60.60
2024-03-07T10:14:19.396Z,60.21
2024-03-07T10:16:46.377Z,59.87
2024-03-07T10:19:13.238Z,60.29
2024-03-07T10:21:41.388Z,59.93
2024-03-07T10:24:08.277Z,59.76
2024-03-07T10:26:36.013Z,59.44
2024-03-07T10:29:04.624Z,59.20
2024-03-07T10:31:31.659Z,59.34
2024-03-07T10:33:58.717Z,59.85
2024-03-07T10:36:27.100Z,59.73
2024-03-07T10:38:54.164Z,60.28
2024-03-07T10:41:21.629Z,60.32
2024-03-07T10:43:49.982Z,61.18
2024-03-07T10:46:17.027Z,61.17
2024-03-07T10:48:44.559Z,60.83
2024-03-07T10:51:13.035Z,59.42
2024-03-07T10:53:40.048Z,60.08
2024-03-07T10:56:07.255Z,60.21
2024-03-07T10:58:35.354Z,60.20
2024-03-07T11:01:02.323Z,59.08
2024-03-07T11:03:29.634Z,58.28
2024-03-07T11:05:58.218Z,57.24
2024-03-07T11:08:25.750Z,57.83
2024-03-07T11:10:52.770Z,57.47
2024-03-07T11:13:21.098Z,57.30
2024-03-07T11:15:48.154Z,55.77
2024-03-07T11:18:15.444Z,56.23
2024-03-07T11:20:44.116Z,56.68
2024-03-07T11:23:11.231Z,57.33
2024-03-07T11:25:38.286Z,56.90
2024-03-07T11:28:06.766Z,57.38
2024-03-07T11:30:33.799Z,56.73
2024-03-07T11:33:00.708Z,57.21
2024-03-07T11:35:29.051Z,57.11
2024-03-07T11:37:56.176Z,57.04
2024-03-07T11:40:23.055Z,56.88
2024-03-07T11:42:51.390Z,57.97
2024-03-07T11:45:18.647Z,57.35
2024-03-07T11:47:45.842Z,57.45
2024-03-07T11:50:14.285Z,57.94
2024-03-07T11:52:41.827Z,57.82
2024-03-07T11:55:08.749Z,58.04
2024-03-07T11:57:37.053Z,57.59
2024-03-07T12:00:04.160Z,57.93
2024-03-07T12:02:31.448Z,57.36
2024-03-07T12:04:59.725Z,57.05
2024-03-07T12:07:26.544Z,57.36
2024-03-07T12:09:53.385Z,57.78
2024-03-07T12:12:21.578Z,57.63
2024-03-07T12:14:49.102Z,57.01
2024-03-07T12:17:16.192Z,56.72
2024-03-07T12:19:44.681Z,57.10
2024-03-07T12:22:11.619Z,57.65
2024-03-07T12:24:38.772Z,57.43
2024-03-07T12:27:07.055Z,57.70
2024-03-07T12:29:34.001Z,58.59
2024-03-07T12:32:01.135Z,58.42
2024-03-07T12:34:31.234Z,58.38
2024-03-07T12:36:58.303Z,58.89
2024-03-07T12:39:25.257Z,59.22
2024-03-07T12:41:54.006Z,59.60
2024-03-07T12:44:21.235Z,60.03
2024-03-07T12:46:48.332Z,60.40
2024-03-07T12:49:16.709Z,60.18
2024-03-07T12:51:43.660Z,59.75
2024-03-07T12:54:10.739Z,59.63
2024-03-07T12:56:39.530Z,59.88
2024-03-07T12:59:06.644Z,60.24
2024-03-07T13:01:33.744Z,59.82
2024-03-07T13:04:01.898Z,59.95
2024-03-07T13:06:28.909Z,59.94
2024-03-07T13:08:55.925Z,59.72
2024-03-07T13:11:25.504Z,59.98
2024-03-07T13:13:52.685Z,59.85
2024-03-07T13:16:19.857Z,59.92
2024-03-07T13:18:49.089Z,60.49
2024-03-07T13:21:16.240Z,60.99
2024-03-07T13:23:43.381Z,61.03
2024-03-07T13:26:11.734Z,61.22
2024-03-07T13:28:38.680Z,61.15
2024-03-07T13:31:05.718Z,61.44
2024-03-07T13:33:34.328Z,61.81
2024-03-07T13:36:01.489Z,61.07
2024-03-07T13:38:28.769Z,61.01
2024-03-07T13:40:56.776Z,61.00
2024-03-07T13:43:23.963Z,61.25
2024-03-07T13:45:51.179Z,60.99
2024-03-07T13:48:19.749Z,61.29
2024-03-07T13:50:55.665Z,61.55
2024-03-07T13:53:27.413Z,61.41
2024-03-07T13:55:55.818Z,60.57
2024-03-07T13:58:25.626Z,60.80
2024-03-07T14:00:52.553Z,61.37
2024-03-07T14:03:20.169Z,61.17
2024-03-07T14:05:48.606Z,61.17
2024-03-07T14:08:15.805Z,61.63
2024-03-07T14:10:42.894Z,61.86
2024-03-07T14:13:11.001Z,61.26
2024-03-07T14:15:37.812Z,61.60
2024-03-07T14:18:04.793Z,62.43
2024-03-07T14:20:33.065Z,62.82
2024-03-07T14:23:00.122Z,62.63
2024-03-07T14:25:27.490Z,63.92
2024-03-07T14:27:55.759Z,63.89
2024-03-07T14:30:22.799Z,63.74
2024-03-07T14:32:50.021Z,63.39
2024-03-07T14:35:18.467Z,62.35
2024-03-07T14:37:45.686Z,62.75
2024-03-07T14:40:12.737Z,63.34
2024-03-07T14:42:40.819Z,63.36
2024-03-07T14:45:08.189Z,62.95
2024-03-07T14:47:35.232Z,62.85
2024-03-07T14:50:03.688Z,62.72
2024-03-07T14:52:30.832Z,62.38
2024-03-07T14:54:57.695Z,63.32
2024-03-07T14:57:26.097Z,62.91
2024-03-07T14:59:53.101Z,62.24
2024-03-07T15:02:20.343Z,61.86
2024-03-07T15:04:48.834Z,61.81
2024-03-07T15:07:16.301Z,61.91
2024-03-07T15:09:43.441Z,62.27
2024-03-07T15:12:11.856Z,61.64
2024-03-07T15:14:40.444Z,61.48
2024-03-07T15:17:10.113Z,61.27
2024-03-07T15:19:37.276Z,61.84
2024-03-07T15:22:04.561Z,61.72
2024-03-07T15:24:32.989Z,61.79
2024-03-07T15:27:00.461Z,62.16
2024-03-07T15:29:27.716Z,62.48
2024-03-07T15:31:56.087Z,62.55
2024-03-07T15:34:23.096Z,62.36
2024-03-07T15:36:50.065Z,62.63
2024-03-07T15:39:18.570Z,63.00
2024-03-07T15:41:45.814Z,63.30
2024-03-07T15:44:13.070Z,63.23
2024-03-07T15:46:41.336Z,63.52
2024-03-07T15:49:08.740Z,63.19
2024-03-07T15:51:36.142Z,63.52
2024-03-07T15:54:04.499Z,63.61
2024-03-07T15:56:31.710Z,63.75
2024-03-07T15:58:58.819Z,63.83
2024-03-07T16:01:27.011Z,63.97
2024-03-07T16:03:53.940Z,64.30
2024-03-07T16:06:20.808Z,64.20
2024-03-07T16:08:49.108Z,64.41
2024-03-07T16:11:16.146Z,64.58
2024-03-07T16:13:43.145Z,64.56
2024-03-07T16:16:11.214Z,64.49
2024-03-07T16:18:38.216Z,64.75
2024-03-07T16:21:05.502Z,64.87
2024-03-07T16:23:34.001Z,65.18
2024-03-07T16:26:01.035Z,65.18
2024-03-07T16:28:28.092Z,65.18
2024-03-07T16:30:56.160Z,65.31
2024-03-07T16:33:23.249Z,65.53
2024-03-07T16:35:50.508Z,65.63
2024-03-07T16:38:18.732Z,65.83
2024-03-07T16:40:45.779Z,66.06
2024-03-07T16:43:14.009Z,66.18
2024-03-07T16:45:42.856Z,66.53
2024-03-07T16:48:09.897Z,66.64
2024-03-07T16:50:36.948Z,66.86
2024-03-07T16:53:05.306Z,67.09
2024-03-07T16:55:32.560Z,67.32
2024-03-07T17:00:30.456Z,67.61
2024-03-07T17:02:57.538Z,67.47
2024-03-07T17:05:24.479Z,67.48
2024-03-07T17:07:52.841Z,67.56
2024-03-07T17:10:19.690Z,67.60
2024-03-07T17:12:46.599Z,67.65
2024-03-07T17:15:14.772Z,67.88
2024-03-07T17:17:42.337Z,68.19
2024-03-07T17:20:09.395Z,68.25
2024-03-07T17:22:37.783Z,68.30
2024-03-07T17:25:04.706Z,68.27
2024-03-07T17:27:31.656Z,68.40
2024-03-07T17:29:59.806Z,68.33
2024-03-07T17:32:26.860Z,68.31
2024-03-07T17:34:54.124Z,68.37
2024-03-07T17:37:22.601Z,68.53
2024-03-07T17:39:49.344Z,68.47
2024-03-07T17:42:16.297Z,68.14
2024-03-07T17:44:44.381Z,68.10
2024-03-07T17:47:11.140Z,68.08
2024-03-07T17:49:38.151Z,68.01
2024-03-07T17:52:06.321Z,67.86
2024-03-07T17:54:33.267Z,67.82
2024-03-07T17:57:00.358Z,67.79
2024-03-07T17:59:29.107Z,67.80
2024-03-07T18:01:56.049Z,67.84
2024-03-07T18:04:22.988Z,67.81
2024-03-07T18:06:51.156Z,68.02
2024-03-07T18:09:18.005Z,68.28
2024-03-07T18:11:45.023Z,68.33
2024-03-07T18:14:13.335Z,68.33
2024-03-07T18:16:40.364Z,68.21
2024-03-07T18:19:07.430Z,68.77
2024-03-07T18:21:35.588Z,69.17
2024-03-07T18:24:02.588Z,69.31
2024-03-07T18:26:29.519Z,69.54
2024-03-07T18:28:57.873Z,69.59
2024-03-07T18:31:24.818Z,69.76
2024-03-07T18:33:52.239Z,69.89
2024-03-07T18:36:20.839Z,70.01
2024-03-07T18:38:47.889Z,69.86
2024-03-07T18:41:15.136Z,69.50
2024-03-07T18:43:43.515Z,69.52
2024-03-07T18:46:10.425Z,69.52
2024-03-07T18:48:37.871Z,69.57
2024-03-07T18:51:06.578Z,69.76
2024-03-07T18:53:33.675Z,69.75
2024-03-07T18:56:00.691Z,69.90
2024-03-07T18:58:28.774Z,70.13
2024-03-07T19:00:55.538Z,70.09
2024-03-07T19:03:23.233Z,70.24
2024-03-07T19:05:52.375Z,70.04
2024-03-07T19:08:19.510Z,69.85
2024-03-07T19:10:46.472Z,69.62
2024-03-07T19:13:14.832Z,69.52
2024-03-07T19:15:41.680Z,69.48
2024-03-07T19:18:08.588Z,69.37
2024-03-07T19:20:37.124Z,69.30
2024-03-07T19:23:04.166Z,69.34
2024-03-07T19:25:31.091Z,69.23
2024-03-07T19:27:59.709Z,69.19
2024-03-07T19:30:29.196Z,69.33
2024-03-07T19:32:57.803Z,69.45
2024-03-07T19:35:24.753Z,69.55
2024-03-07T19:37:51.747Z,69.72
2024-03-07T19:40:19.929Z,69.80
2024-03-07T19:42:46.771Z,69.72
2024-03-07T19:45:13.630Z,69.68
2024-03-07T19:47:41.923Z,69.72
2024-03-07T19:50:09.245Z,69.85
2024-03-07T19:52:38.820Z,70.07
2024-03-07T19:55:08.140Z,70.17
2024-03-07T19:57:35.099Z,70.22
2024-03-07T20:00:02.038Z,70.18
2024-03-07T20:02:30.412Z,70.17
2024-03-07T20:04:57.359Z,70.31
2024-03-07T20:07:24.308Z,70.39
2024-03-07T20:09:52.435Z,70.44
2024-03-07T20:12:19.301Z,70.63
2024-03-07T20:14:46.190Z,70.81
2024-03-07T20:17:14.436Z,70.64
2024-03-07T20:19:41.386Z,70.74
2024-03-07T20:22:08.327Z,70.80
2024-03-07T20:24:36.494Z,70.89
2024-03-07T20:27:03.728Z,70.71
2024-03-07T20:29:30.937Z,70.78
2024-03-07T20:31:59.215Z,70.81
2024-03-07T20:34:26.224Z,70.69
2024-03-07T20:36:53.268Z,70.61
2024-03-07T20:39:21.447Z,70.62
2024-03-07T20:41:48.546Z,70.63
2024-03-07T20:44:15.536Z,70.71
2024-03-07T20:46:43.914Z,70.85
2024-03-07T20:49:11.262Z,70.91
2024-03-07T20:51:38.422Z,70.96
2024-03-07T20:54:06.757Z,70.88
2024-03-07T20:56:33.886Z,70.83
2024-03-07T20:59:00.886Z,70.90
2024-03-07T21:01:29.055Z,70.96
2024-03-07T21:03:59.077Z,71.01
2024-03-07T21:06:28.384Z,71.01
2024-03-07T21:08:55.388Z,71.14
2024-03-07T21:11:22.688Z,71.13
2024-03-07T21:13:50.847Z,70.91
2024-03-07T21:16:17.791Z,70.96
2024-03-07T21:18:44.950Z,71.08
2024-03-07T21:21:13.277Z,71.16
2024-03-07T21:23:40.491Z,71.22
2024-03-07T21:26:07.418Z,71.43
2024-03-07T21:28:35.585Z,71.66
2024-03-07T21:31:02.428Z,71.97
2024-03-07T21:33:29.585Z,72.18
2024-03-07T21:35:58.065Z,72.38
2024-03-07T21:38:25.055Z,72.54
2024-03-07T21:40:52.154Z,72.71
2024-03-07T21:43:20.228Z,73.02
2024-03-07T21:45:47.164Z,73.28
2024-03-07T21:48:14.160Z,73.48
2024-03-07T21:50:42.512Z,73.70
2024-03-07T21:53:09.446Z,73.96
2024-03-07T21:55:36.697Z,73.98
2024-03-07T21:58:04.980Z,73.93
2024-03-07T22:00:32.282Z,74.04
2024-03-07T22:03:01.971Z,74.15
2024-03-07T22:05:32.416Z,74.19
2024-03-07T22:08:00.402Z,74.37
2024-03-07T22:10:29.822Z,74.67
2024-03-07T22:12:56.673Z,74.88
2024-03-07T22:15:23.949Z,74.89
2024-03-07T22:17:52.894Z,75.14
2024-03-07T22:20:20.059Z,75.28
2024-03-07T22:22:46.900Z,75.47
2024-03-07T22:25:15.063Z,75.61
2024-03-07T22:27:42.050Z,75.74
2024-03-07T22:30:08.978Z,75.88
2024-03-07T22:32:37.194Z,76.02
2024-03-07T22:35:04.875Z,76.16
2024-03-07T22:37:32.148Z,76.38
2024-03-07T22:40:00.356Z,76.69
2024-03-07T22:42:27.466Z,76.93
2024-03-07T22:44:54.421Z,77.11
2024-03-07T22:47:22.771Z,77.06
2024-03-07T22:49:49.656Z,76.98
2024-03-07T22:52:16.474Z,76.96
2024-03-07T22:54:45.972Z,77.09
2024-03-07T22:57:14.148Z,77.19
2024-03-07T22:59:43.698Z,77.28
2024-03-07T23:02:10.602Z,77.44
2024-03-07T23:04:37.541Z,77.63
2024-03-07T23:07:05.822Z,77.76
2024-03-07T23:09:32.768Z,77.83
2024-03-07T23:11:59.726Z,77.77
2024-03-07T23:14:27.926Z,77.85
2024-03-07T23:16:54.916Z,77.97
2024-03-07T23:19:22.189Z,78.12
2024-03-07T23:21:50.452Z,78.20
2024-03-07T23:24:17.460Z,78.34
2024-03-07T23:26:44.608Z,78.63
2024-03-07T23:29:12.824Z,78.78
2024-03-07T23:31:39.767Z,79.06
2024-03-07T23:34:06.748Z,79.15
2024-03-07T23:36:34.890Z,79.29
2024-03-07T23:39:02.210Z,79.26
2024-03-07T23:41:29.230Z,79.27
2024-03-07T23:43:57.460Z,79.34
2024-03-07T23:46:24.513Z,79.44
2024-03-07T23:48:51.764Z,79.64
2024-03-07T23:51:20.340Z,79.74
2024-03-07T23:53:47.188Z,79.99
2024-03-07T23:56:14.334Z,80.21
2024-03-07T23:58:42.426Z,80.27
